»·PEaware :: N196EC KSNA-KAVX

N196EC :: KSNA-KAVX

FLIGHT INFORMATION

Flight Status: Arrived
Operator: Privately registered:
United States
More flights under this callsign
Pilot: Adrián R. (20842)
Aircraft: BEECH AIRCRAFT DEBONAIR BONANZA
(BE33)
More flights by this aircraft type
Origin: KSNA John Wayne-Orange Co
United States
Destination: KAVX Catalina
United States
More flights between these airports :: More routes between these airports
Route: +SLI V21 SXC
File this flight plan on PilotEdge
Remarks: I7
Altitude:
(Current/Filed)
6,000ft
Speed:
(Current/Filed)
150kts
Departed: 07-Nov-18 09:59 AM
Arrived: 07-Nov-18 10:24 AM
Distance/Time
Traveled:
32nm/0:24
Distance/Time
To Go:
Arrived

Flight Plot

Page will automatically refresh every two minutes.


Map Options




Map Legend


Flown Route
Filed Route
Departure Airport
Arrival Airport
Navaid (VOR, NDB)
Fix

Horizontal Profiles

Position Reports

Time Latitude Longitude Heading Altitude Ground
Speed
07-Nov-18 09:37 33.670989 -117.867954 34 59ft 0kts
07-Nov-18 09:38 33.670989 -117.867954 34 59ft 0kts
07-Nov-18 09:39 33.670989 -117.867954 34 59ft 0kts
07-Nov-18 09:40 33.670989 -117.867954 34 59ft 0kts
07-Nov-18 09:41 33.670989 -117.867954 34 59ft 0kts
07-Nov-18 09:42 33.670989 -117.867954 34 59ft 0kts
07-Nov-18 09:43 33.670989 -117.867954 34 59ft 0kts
07-Nov-18 09:44 33.670989 -117.867954 34 59ft 0kts
07-Nov-18 09:45 33.670989 -117.867954 34 59ft 0kts
07-Nov-18 09:46 33.670989 -117.867954 34 59ft 0kts
07-Nov-18 09:47 33.670989 -117.867954 34 59ft 0kts
07-Nov-18 09:48 33.670989 -117.867954 34 59ft 0kts
07-Nov-18 09:49 33.670989 -117.867954 34 59ft 0kts
07-Nov-18 09:50 33.670989 -117.867954 33 59ft 0kts
07-Nov-18 09:51 33.670989 -117.867954 34 59ft 0kts
07-Nov-18 09:52 33.670989 -117.867954 34 59ft 0kts
07-Nov-18 09:53 33.670989 -117.867954 34 59ft 0kts
07-Nov-18 09:54 33.671138 -117.867994 321 59ft 0kts
07-Nov-18 09:55 33.671138 -117.867994 321 59ft 0kts
07-Nov-18 09:56 33.671138 -117.867994 321 59ft 0kts
07-Nov-18 09:57 33.673402 -117.866986 5 59ft 10kts
07-Nov-18 09:58 33.677613 -117.864840 30 59ft 19kts
07-Nov-18 09:59 33.680009 -117.863585 299 59ft 0kts
07-Nov-18 10:00 33.680009 -117.863585 299 59ft 0kts
07-Nov-18 10:01 33.680037 -117.863644 299 60ft 2kts
07-Nov-18 10:02 33.669619 -117.872326 222 572ft 97kts
07-Nov-18 10:03 33.651580 -117.901925 232 1776ft 113kts
07-Nov-18 10:04 33.629664 -117.938276 233 2001ft 151kts
07-Nov-18 10:05 33.605140 -117.978102 232 1999ft 146kts
07-Nov-18 10:06 33.581058 -118.016717 232 1999ft 142kts
07-Nov-18 10:07 33.560439 -118.050781 238 2669ft 96kts
07-Nov-18 10:08 33.545360 -118.080629 239 3643ft 123kts
07-Nov-18 10:09 33.525779 -118.120111 239 4017ft 153kts
07-Nov-18 10:10 33.504266 -118.163127 239 4008ft 147kts
07-Nov-18 10:11 33.483153 -118.205186 239 3984ft 147kts
07-Nov-18 10:12 33.462181 -118.246893 240 3989ft 145kts
07-Nov-18 10:13 33.441288 -118.288409 241 3999ft 146kts
07-Nov-18 10:14 33.420134 -118.330440 241 4009ft 148kts
07-Nov-18 10:15 33.398668 -118.372818 241 4008ft 149kts
07-Nov-18 10:16 33.381301 -118.416534 288 3997ft 145kts
07-Nov-18 10:17 33.416543 -118.416107 12 4009ft 147kts
07-Nov-18 10:18 33.454798 -118.408268 3 4006ft 136kts
07-Nov-18 10:19 33.493749 -118.405000 0 3589ft 148kts
07-Nov-18 10:20 33.521159 -118.420276 248 3395ft 115kts
07-Nov-18 10:21 33.493672 -118.424041 176 2863ft 110kts
07-Nov-18 10:22 33.465597 -118.409180 154 2298ft 99kts
07-Nov-18 10:23 33.443050 -118.405918 192 2316ft 84kts
07-Nov-18 10:24 33.418687 -118.413160 218 2266ft 87kts
07-Nov-18 10:25 33.403458 -118.435893 237 1998ft 86kts
07-Nov-18 10:26 33.395248 -118.434915 61 1964ft 74kts
07-Nov-18 10:27 33.405499 -118.415016 52 1569ft 25kts
07-Nov-18 10:28 33.404751 -118.415111 168 1569ft 0kts
07-Nov-18 10:29 33.403246 -118.415788 208 1569ft 9kts
07-Nov-18 10:30 33.403124 -118.415779 10 1569ft 0kts
07-Nov-18 10:31 33.403124 -118.415779 10 1569ft 0kts

Navigation Log

Ident Type
Flight plan parsing failed, navigation log unavailable